createdAt,value
2023-03-07T00:39:38.710Z,992.5
2023-03-07T00:40:38.716Z,992.5
2023-03-07T00:41:38.706Z,992.6
2023-03-07T00:42:38.700Z,992.5
2023-03-07T00:43:38.698Z,992.5
2023-03-07T00:44:38.715Z,992.6
2023-03-07T00:46:38.703Z,992.5
2023-03-07T00:47:38.699Z,992.5
2023-03-07T00:48:38.731Z,992.5
2023-03-07T00:49:38.704Z,992.6
2023-03-07T00:50:38.722Z,992.5
2023-03-07T00:51:38.824Z,992.5
2023-03-07T00:52:38.698Z,992.5
2023-03-07T00:53:38.706Z,992.6
2023-03-07T00:54:38.713Z,992.5
2023-03-07T00:55:38.700Z,992.5
2023-03-07T00:56:38.705Z,992.4
2023-03-07T00:57:38.701Z,992.5
2023-03-07T00:58:38.704Z,992.6
2023-03-07T00:59:38.712Z,992.5
2023-03-07T01:00:38.718Z,992.5
2023-03-07T01:01:38.713Z,992.4
2023-03-07T01:02:38.692Z,992.5
2023-03-07T01:03:38.718Z,992.5
2023-03-07T01:04:38.698Z,992.5
2023-03-07T01:05:38.828Z,992.5
2023-03-07T01:06:38.708Z,992.4
2023-03-07T01:07:38.700Z,992.5
2023-03-07T01:08:38.697Z,992.5
2023-03-07T01:09:38.712Z,992.5
2023-03-07T01:10:38.705Z,992.5
2023-03-07T01:11:38.704Z,992.5
2023-03-07T01:12:38.696Z,992.5
2023-03-07T01:14:38.699Z,992.4
2023-03-07T01:15:38.705Z,992.5
2023-03-07T01:16:38.790Z,992.5
2023-03-07T01:17:38.703Z,992.4
2023-03-07T01:18:38.694Z,992.4
2023-03-07T01:19:38.695Z,992.4
2023-03-07T01:20:38.784Z,992.4
2023-03-07T01:21:38.722Z,992.3
2023-03-07T01:22:38.726Z,992.3
2023-03-07T01:23:38.712Z,992.3
2023-03-07T01:24:38.693Z,992.4
2023-03-07T01:25:38.694Z,992.3
2023-03-07T01:26:38.709Z,992.3
2023-03-07T01:27:38.697Z,992.3
2023-03-07T01:28:38.695Z,992.3
2023-03-07T01:29:38.704Z,992.4
2023-03-07T01:30:38.753Z,992.3
2023-03-07T01:31:38.747Z,992.2
2023-03-07T01:32:38.755Z,992.2
2023-03-07T01:33:38.690Z,992.2
2023-03-07T01:34:38.691Z,992.2
2023-03-07T01:35:38.862Z,992.3
2023-03-07T01:36:38.767Z,992.2
2023-03-07T01:37:38.741Z,992.2
2023-03-07T01:38:38.707Z,992.2
2023-03-07T01:39:38.702Z,992.1
2023-03-07T01:40:38.697Z,992.1
2023-03-07T01:41:38.682Z,992.2
2023-03-07T01:42:38.692Z,992.2
2023-03-07T01:43:38.697Z,992.1
2023-03-07T01:44:38.698Z,992.2
2023-03-07T01:45:38.706Z,992.2
2023-03-07T01:46:38.693Z,992.1
2023-03-07T01:48:38.683Z,992.1
2023-03-07T01:49:38.804Z,992
2023-03-07T01:50:38.681Z,992
2023-03-07T01:51:38.691Z,992.1
2023-03-07T01:52:38.776Z,992.1
2023-03-07T01:53:38.719Z,992.1
2023-03-07T01:54:38.701Z,992
2023-03-07T01:55:38.716Z,992.1
2023-03-07T01:56:38.695Z,991.9
2023-03-07T01:57:38.778Z,992
2023-03-07T01:58:38.680Z,992
2023-03-07T01:59:38.683Z,992
2023-03-07T02:00:38.680Z,991.9
2023-03-07T02:01:38.735Z,992
2023-03-07T02:02:38.684Z,992
2023-03-07T02:03:38.687Z,992
2023-03-07T02:04:38.813Z,992
2023-03-07T02:05:38.676Z,991.9
2023-03-07T02:06:38.688Z,991.9
2023-03-07T02:07:38.699Z,991.9
2023-03-07T02:08:38.678Z,991.9
2023-03-07T02:09:38.686Z,991.9
2023-03-07T02:10:38.681Z,991.8
2023-03-07T02:11:38.682Z,991.8
2023-03-07T02:12:38.678Z,991.8
2023-03-07T02:13:38.681Z,991.8
2023-03-07T02:14:38.679Z,991.8
2023-03-07T02:15:38.707Z,991.8
2023-03-07T02:16:38.694Z,991.7
2023-03-07T02:17:38.682Z,991.8
2023-03-07T02:18:38.695Z,991.7
2023-03-07T02:19:38.694Z,991.8
2023-03-07T02:20:38.678Z,991.8
2023-03-07T02:21:38.676Z,991.7
2023-03-07T02:22:38.681Z,991.8
2023-03-07T02:23:38.677Z,991.7
2023-03-07T02:24:38.702Z,991.7
2023-03-07T02:25:38.670Z,991.7
2023-03-07T02:26:38.670Z,991.7
2023-03-07T02:27:38.686Z,991.7
2023-03-07T02:28:38.677Z,991.7
2023-03-07T02:29:38.671Z,991.6
2023-03-07T02:30:38.757Z,991.6
2023-03-07T02:31:38.674Z,991.6
2023-03-07T02:32:38.789Z,991.7
2023-03-07T02:33:38.677Z,991.6
2023-03-07T02:34:38.670Z,991.6
2023-03-07T02:35:38.722Z,991.6
2023-03-07T02:36:38.719Z,991.5
2023-03-07T02:37:38.669Z,991.5
2023-03-07T02:38:38.680Z,991.5
2023-03-07T02:39:38.726Z,991.5
2023-03-07T02:40:38.668Z,991.5
2023-03-07T02:41:38.672Z,991.5
2023-03-07T02:42:38.665Z,991.5
2023-03-07T02:43:38.672Z,991.5
2023-03-07T02:44:38.737Z,991.4
2023-03-07T02:45:38.674Z,991.5
2023-03-07T02:46:38.678Z,991.4
2023-03-07T02:47:38.690Z,991.5
2023-03-07T02:48:38.671Z,991.5
2023-03-07T02:49:38.671Z,991.4
2023-03-07T02:50:38.692Z,991.5
2023-03-07T02:51:38.664Z,991.4
2023-03-07T02:52:38.673Z,991.4
2023-03-07T02:53:38.666Z,991.5
2023-03-07T02:54:38.708Z,991.5
2023-03-07T02:55:38.698Z,991.4
2023-03-07T02:56:38.667Z,991.4
2023-03-07T02:57:38.674Z,991.5
2023-03-07T02:58:38.679Z,991.4
2023-03-07T02:59:38.686Z,991.4
2023-03-07T03:00:38.793Z,991.5
2023-03-07T03:01:38.701Z,991.3
2023-03-07T03:02:38.678Z,991.4
2023-03-07T03:03:38.687Z,991.4
2023-03-07T03:04:38.814Z,991.3
2023-03-07T03:05:38.665Z,991.4
2023-03-07T03:06:38.685Z,991.4
2023-03-07T03:07:38.675Z,991.4
2023-03-07T03:08:38.690Z,991.4
2023-03-07T03:09:38.668Z,991.4
2023-03-07T03:10:38.665Z,991.4
2023-03-07T03:11:38.666Z,991.3
2023-03-07T03:12:38.673Z,991.4
2023-03-07T03:13:39.139Z,991.5
2023-03-07T03:14:38.658Z,991.4
2023-03-07T03:15:38.668Z,991.4
2023-03-07T03:16:38.670Z,991.3
2023-03-07T03:17:38.675Z,991.3
2023-03-07T03:18:38.672Z,991.4
2023-03-07T03:19:38.691Z,991.3
2023-03-07T03:20:38.669Z,991.4
2023-03-07T03:21:38.662Z,991.3
2023-03-07T03:22:38.670Z,991.3
2023-03-07T03:23:38.672Z,991.2
2023-03-07T03:24:38.757Z,991.3
2023-03-07T03:25:40.145Z,991.3
2023-03-07T03:26:38.736Z,991.3
2023-03-07T03:27:38.679Z,991.3
2023-03-07T03:28:38.683Z,991.3
2023-03-07T03:29:38.671Z,991.3
2023-03-07T03:30:38.669Z,991.4
2023-03-07T03:31:38.694Z,991.3
2023-03-07T03:32:38.710Z,991.3
2023-03-07T03:33:38.666Z,991.3
2023-03-07T03:34:38.671Z,991.4
2023-03-07T03:35:38.707Z,991.3
2023-03-07T03:37:38.666Z,991.4
2023-03-07T03:38:38.676Z,991.4
2023-03-07T03:39:38.671Z,991.4
2023-03-07T03:40:38.675Z,991.3
2023-03-07T03:41:38.714Z,991.4
2023-03-07T03:42:38.669Z,991.4
2023-03-07T03:43:38.679Z,991.4
2023-03-07T03:44:38.674Z,991.4
2023-03-07T03:45:38.656Z,991.3
2023-03-07T03:46:38.791Z,991.3
2023-03-07T03:48:38.665Z,991.4
2023-03-07T03:49:38.670Z,991.4
2023-03-07T03:50:38.655Z,991.4
2023-03-07T03:51:38.716Z,991.4
2023-03-07T03:52:38.664Z,991.3
2023-03-07T03:53:38.669Z,991.4
2023-03-07T03:54:38.671Z,991.4
2023-03-07T03:55:38.663Z,991.3
2023-03-07T03:56:38.731Z,991.3
2023-03-07T03:57:38.696Z,991.3
2023-03-07T03:58:38.667Z,991.3
2023-03-07T03:59:38.658Z,991.3
2023-03-07T04:00:38.677Z,991.2
2023-03-07T04:01:38.688Z,991.3
2023-03-07T04:02:38.876Z,991.4
2023-03-07T04:03:38.660Z,991.3
2023-03-07T04:04:38.657Z,991.3
2023-03-07T04:05:38.653Z,991.3
2023-03-07T04:06:38.663Z,991.2
2023-03-07T04:07:38.660Z,991.2
2023-03-07T04:08:38.664Z,991.2
2023-03-07T04:09:38.666Z,991.1
2023-03-07T04:10:38.662Z,991.1
2023-03-07T04:11:38.655Z,991.1
2023-03-07T04:12:38.663Z,991.1
2023-03-07T04:13:38.661Z,991.1
2023-03-07T04:14:38.656Z,991.1
2023-03-07T04:15:38.656Z,991
2023-03-07T04:16:38.698Z,991
2023-03-07T04:17:38.655Z,991.1
2023-03-07T04:18:38.655Z,991
2023-03-07T04:19:38.655Z,991.1
2023-03-07T04:20:38.668Z,991
2023-03-07T04:21:38.649Z,991
2023-03-07T04:22:38.658Z,991
2023-03-07T04:23:38.671Z,991
2023-03-07T04:24:38.658Z,991
2023-03-07T04:25:38.690Z,991
2023-03-07T04:26:38.649Z,991
2023-03-07T04:27:38.666Z,990.9
2023-03-07T04:28:38.682Z,990.9
2023-03-07T04:29:38.646Z,990.9
2023-03-07T04:30:38.645Z,990.9
2023-03-07T04:31:38.755Z,990.9
2023-03-07T04:32:38.692Z,990.9
2023-03-07T04:33:38.646Z,990.9
2023-03-07T04:34:38.649Z,990.9
2023-03-07T04:35:38.673Z,990.9
2023-03-07T04:37:38.661Z,990.8
2023-03-07T04:38:38.658Z,990.9
2023-03-07T04:39:38.648Z,990.8
2023-03-07T04:40:38.643Z,990.8
2023-03-07T04:41:38.650Z,990.8
2023-03-07T04:42:38.652Z,990.8
2023-03-07T04:43:38.711Z,990.8
2023-03-07T04:44:38.647Z,990.8
2023-03-07T04:45:38.737Z,990.8
2023-03-07T04:46:38.651Z,990.8
2023-03-07T04:47:38.647Z,990.9
2023-03-07T04:48:38.648Z,990.8
2023-03-07T04:49:38.650Z,990.8
2023-03-07T04:50:38.650Z,990.8
2023-03-07T04:51:38.669Z,990.7
2023-03-07T04:52:38.658Z,990.7
2023-03-07T04:53:38.649Z,990.7
2023-03-07T04:54:38.643Z,990.7
2023-03-07T04:55:38.648Z,990.7
2023-03-07T04:56:38.657Z,990.6
2023-03-07T04:57:38.659Z,990.6
2023-03-07T04:58:38.657Z,990.6
2023-03-07T04:59:38.666Z,990.6
2023-03-07T05:00:38.640Z,990.6
2023-03-07T05:01:38.752Z,990.6
2023-03-07T05:02:38.775Z,990.6
2023-03-07T05:03:38.640Z,990.6
2023-03-07T05:04:38.706Z,990.6
2023-03-07T05:05:38.685Z,990.6
2023-03-07T05:06:38.647Z,990.6
2023-03-07T05:07:38.653Z,990.6
2023-03-07T05:08:38.663Z,990.6
2023-03-07T05:09:38.648Z,990.5
2023-03-07T05:10:38.639Z,990.5
2023-03-07T05:11:38.648Z,990.5
2023-03-07T05:12:38.652Z,990.6
2023-03-07T05:13:38.672Z,990.5
2023-03-07T05:14:38.662Z,990.5
2023-03-07T05:15:38.730Z,990.5
2023-03-07T05:16:38.638Z,990.5
2023-03-07T05:17:38.640Z,990.5
2023-03-07T05:18:38.707Z,990.5
2023-03-07T05:19:38.646Z,990.5
2023-03-07T05:20:38.649Z,990.4
2023-03-07T05:21:38.658Z,990.5
2023-03-07T05:22:38.642Z,990.4
2023-03-07T05:23:38.643Z,990.4
2023-03-07T05:24:38.643Z,990.4
2023-03-07T05:25:38.638Z,990.4
2023-03-07T05:26:38.643Z,990.4
2023-03-07T05:27:38.646Z,990.4
2023-03-07T05:28:38.642Z,990.4
2023-03-07T05:29:38.642Z,990.3
2023-03-07T05:30:38.671Z,990.3
2023-03-07T05:31:38.717Z,990.3
2023-03-07T05:32:38.707Z,990.3
2023-03-07T05:33:38.646Z,990.3
2023-03-07T05:34:38.638Z,990.2
2023-03-07T05:35:38.644Z,990.3
2023-03-07T05:36:32.621Z,990.3
2023-03-07T05:37:38.639Z,990.3
2023-03-07T05:38:38.652Z,990.3
2023-03-07T05:39:38.637Z,990.3
2023-03-07T05:40:38.654Z,990.2
2023-03-07T05:41:38.641Z,990.3
2023-03-07T05:42:38.636Z,990.3
2023-03-07T05:43:38.639Z,990.3
2023-03-07T05:44:38.636Z,990.3
2023-03-07T05:45:38.637Z,990.3
2023-03-07T05:46:38.697Z,990.3
2023-03-07T05:47:38.650Z,990.3
2023-03-07T05:48:38.638Z,990.3
2023-03-07T05:49:38.657Z,990.3
2023-03-07T05:50:38.682Z,990.2
2023-03-07T05:51:38.655Z,990.2
2023-03-07T05:52:38.642Z,990.2
2023-03-07T05:53:38.626Z,990.2
2023-03-07T05:54:38.641Z,990.2
2023-03-07T05:55:38.690Z,990.2
2023-03-07T05:56:38.665Z,990.2
2023-03-07T05:57:38.636Z,990.2
2023-03-07T05:58:38.628Z,990.2
2023-03-07T05:59:38.637Z,990.2
2023-03-07T06:00:38.703Z,990.2
2023-03-07T06:01:38.671Z,990.2
2023-03-07T06:02:38.677Z,990.2
2023-03-07T06:03:38.672Z,990.2
2023-03-07T06:04:38.634Z,990.2
2023-03-07T06:05:38.631Z,990.2
2023-03-07T06:06:38.641Z,990.2
2023-03-07T06:07:38.638Z,990.1
2023-03-07T06:08:38.632Z,990.1
2023-03-07T06:09:38.699Z,990.1
2023-03-07T06:10:38.664Z,990.1
2023-03-07T06:11:38.670Z,990.1
2023-03-07T06:12:38.642Z,990.1
2023-03-07T06:13:38.639Z,990.1
2023-03-07T06:14:38.628Z,990.1
2023-03-07T06:15:38.650Z,990.1
2023-03-07T06:16:38.638Z,990.1
2023-03-07T06:17:40.613Z,990.2
2023-03-07T06:18:38.647Z,990
2023-03-07T06:19:38.635Z,990
2023-03-07T06:20:38.645Z,990
2023-03-07T06:21:38.632Z,990
2023-03-07T06:22:38.629Z,990
2023-03-07T06:23:38.629Z,990.1
2023-03-07T06:24:38.640Z,990
2023-03-07T06:25:38.676Z,990
2023-03-07T06:26:38.634Z,990
2023-03-07T06:27:38.624Z,990
2023-03-07T06:28:38.625Z,990.1
2023-03-07T06:29:38.632Z,990
2023-03-07T06:30:38.699Z,990
2023-03-07T06:31:38.665Z,990
2023-03-07T06:32:38.809Z,990
2023-03-07T06:33:38.641Z,990
2023-03-07T06:34:38.627Z,990
2023-03-07T06:35:38.669Z,989.9
2023-03-07T06:36:38.662Z,989.9
2023-03-07T06:37:38.633Z,990
2023-03-07T06:38:38.625Z,990
2023-03-07T06:39:38.639Z,990
2023-03-07T06:40:38.634Z,989.9
2023-03-07T06:41:38.662Z,990
2023-03-07T06:42:38.630Z,989.9
2023-03-07T06:43:38.632Z,990
2023-03-07T06:44:38.626Z,990
2023-03-07T06:45:38.697Z,989.9
2023-03-07T06:46:38.638Z,989.9
2023-03-07T06:47:38.633Z,989.9
2023-03-07T06:48:38.629Z,990
2023-03-07T06:49:38.626Z,990
2023-03-07T06:50:38.620Z,989.9
2023-03-07T06:51:38.628Z,989.9
2023-03-07T06:52:38.628Z,990
2023-03-07T06:53:38.617Z,990
2023-03-07T06:54:38.638Z,989.9
2023-03-07T06:55:38.625Z,989.9
2023-03-07T06:56:38.623Z,990
2023-03-07T06:57:38.674Z,989.9
2023-03-07T06:58:38.625Z,990
2023-03-07T06:59:38.651Z,989.9
2023-03-07T07:00:38.663Z,989.9
2023-03-07T07:01:39.864Z,989.9
2023-03-07T07:02:38.768Z,989.9
2023-03-07T07:03:38.645Z,989.9
2023-03-07T07:04:38.623Z,989.9
2023-03-07T07:05:38.642Z,989.9
2023-03-07T07:06:38.644Z,989.9
2023-03-07T07:07:38.655Z,989.9
2023-03-07T07:08:38.628Z,989.9
2023-03-07T07:09:38.618Z,989.9
2023-03-07T07:10:38.618Z,990
2023-03-07T07:11:38.619Z,989.9
2023-03-07T07:12:38.620Z,989.9
2023-03-07T07:13:38.628Z,989.9
2023-03-07T07:14:38.617Z,989.9
2023-03-07T07:15:38.621Z,989.9
2023-03-07T07:16:38.681Z,989.9
2023-03-07T07:17:38.620Z,989.9
2023-03-07T07:18:38.610Z,989.9
2023-03-07T07:19:38.620Z,989.9
2023-03-07T07:20:38.614Z,989.9
2023-03-07T07:21:38.617Z,990
2023-03-07T07:22:38.645Z,989.9
2023-03-07T07:23:38.638Z,989.9
2023-03-07T07:24:38.622Z,989.8
2023-03-07T07:25:38.618Z,989.9
2023-03-07T07:26:38.619Z,989.9
2023-03-07T07:27:38.643Z,989.9
2023-03-07T07:28:38.613Z,990
2023-03-07T07:29:38.626Z,989.9
2023-03-07T07:30:38.616Z,990
2023-03-07T07:31:38.748Z,990
2023-03-07T07:32:38.808Z,989.9
2023-03-07T07:34:38.648Z,989.9
2023-03-07T07:35:38.634Z,989.8
2023-03-07T07:36:38.621Z,989.9
2023-03-07T07:37:38.683Z,989.9
2023-03-07T07:38:38.610Z,989.9
2023-03-07T07:39:38.615Z,989.8
2023-03-07T07:40:38.611Z,989.8
2023-03-07T07:41:38.628Z,989.8
2023-03-07T07:42:38.646Z,989.9
2023-03-07T07:43:38.618Z,989.9
2023-03-07T07:44:38.611Z,989.9
2023-03-07T07:45:38.663Z,989.9
2023-03-07T07:46:38.631Z,990
2023-03-07T07:47:38.625Z,990
2023-03-07T07:48:38.615Z,990
2023-03-07T07:49:38.620Z,990
2023-03-07T07:50:38.634Z,989.9
2023-03-07T07:51:38.619Z,990
2023-03-07T07:52:38.618Z,990
2023-03-07T07:53:38.611Z,990
2023-03-07T07:54:38.618Z,990
2023-03-07T07:55:38.632Z,990.1
2023-03-07T07:56:38.685Z,990.1
2023-03-07T07:57:38.685Z,990.1
2023-03-07T07:59:38.622Z,990.1
2023-03-07T08:00:39.488Z,990.1
2023-03-07T08:01:38.632Z,990
2023-03-07T08:02:38.665Z,990.1
2023-03-07T08:03:38.728Z,990.1
2023-03-07T08:04:38.667Z,990.1
2023-03-07T08:05:38.646Z,990.1
2023-03-07T08:06:38.612Z,990.2
2023-03-07T08:07:38.609Z,990.2
2023-03-07T08:08:38.612Z,990.1
2023-03-07T08:09:38.621Z,990.1
2023-03-07T08:10:38.612Z,990.1
2023-03-07T08:11:38.615Z,990.1
2023-03-07T08:12:38.622Z,990.1
2023-03-07T08:13:38.617Z,990.2
2023-03-07T08:14:38.612Z,990.2
2023-03-07T08:15:38.650Z,990.2
2023-03-07T08:16:38.608Z,990.2
2023-03-07T08:17:38.616Z,990.2
2023-03-07T08:18:38.612Z,990.3
2023-03-07T08:19:38.612Z,990.2
2023-03-07T08:20:38.624Z,990.3
2023-03-07T08:21:38.620Z,990.3
2023-03-07T08:22:38.617Z,990.2
2023-03-07T08:23:38.615Z,990.2
2023-03-07T08:24:40.951Z,990.2
2023-03-07T08:25:38.620Z,990.2
2023-03-07T08:26:38.615Z,990.3
2023-03-07T08:27:38.611Z,990.3
2023-03-07T08:28:38.611Z,990.2
2023-03-07T08:29:38.625Z,990.3
2023-03-07T08:31:38.611Z,990.3
2023-03-07T08:32:38.672Z,990.2
2023-03-07T08:34:38.612Z,990.2
2023-03-07T08:35:38.653Z,990.3
2023-03-07T08:36:38.637Z,990.2
2023-03-07T08:37:38.614Z,990.3
2023-03-07T08:38:38.627Z,990.2
2023-03-07T08:39:38.610Z,990.3
2023-03-07T08:40:38.614Z,990.3
2023-03-07T08:43:38.610Z,990.2
2023-03-07T08:44:38.628Z,990.3
2023-03-07T08:45:38.612Z,990.2
2023-03-07T08:46:38.720Z,990.2
2023-03-07T08:47:38.616Z,990.3
2023-03-07T08:48:38.626Z,990.3
2023-03-07T08:49:38.627Z,990.2
2023-03-07T08:50:38.626Z,990.3
2023-03-07T08:53:38.611Z,990.3
2023-03-07T08:54:38.615Z,990.2
2023-03-07T08:55:38.607Z,990.2
2023-03-07T08:56:38.605Z,990.3
2023-03-07T09:01:41.000Z,990.3
2023-03-07T09:02:38.628Z,990.4
2023-03-07T09:05:38.620Z,990.5
2023-03-07T09:06:38.717Z,990.4
2023-03-07T09:07:38.622Z,990.5
2023-03-07T09:11:38.628Z,990.5
2023-03-07T09:19:38.617Z,990.7
2023-03-07T09:23:38.629Z,990.8
2023-03-07T09:24:38.612Z,990.7
2023-03-07T09:27:38.607Z,990.6
2023-03-07T09:28:38.615Z,990.6
2023-03-07T09:34:38.611Z,990.7
2023-03-07T09:36:38.654Z,990.7
2023-03-07T09:38:38.620Z,990.8
2023-03-07T09:51:38.670Z,990.8
2023-03-07T10:02:38.608Z,990.8
2023-03-07T10:09:38.627Z,991
2023-03-07T10:12:38.650Z,990.9
2023-03-07T10:13:38.650Z,990.9
2023-03-07T10:18:38.721Z,990.9
2023-03-07T10:20:38.609Z,991
2023-03-07T10:22:38.613Z,991
2023-03-07T10:23:38.612Z,991
2023-03-07T10:27:38.612Z,991
2023-03-07T10:38:38.652Z,991.1
2023-03-07T10:40:38.617Z,991.1
2023-03-07T10:42:38.636Z,991.1
2023-03-07T10:46:44.053Z,991.1
2023-03-07T11:00:38.847Z,991.1
2023-03-07T11:01:38.672Z,991.1
2023-03-07T11:03:51.569Z,991.1
2023-03-07T11:11:38.608Z,991.1
2023-03-07T11:29:38.630Z,991.2
2023-03-07T11:32:38.662Z,991.2
2023-03-07T11:49:38.620Z,991.2
2023-03-07T11:55:38.637Z,991.2
2023-03-07T11:58:38.700Z,991.2
2023-03-07T12:02:38.695Z,991.2
2023-03-07T12:32:38.982Z,991.1
2023-03-07T12:42:38.722Z,991.1
2023-03-07T12:59:38.636Z,991
2023-03-07T13:20:38.783Z,991
2023-03-07T13:24:38.680Z,991
2023-03-07T14:11:38.868Z,991.1
2023-03-07T14:24:38.825Z,991.1
2023-03-07T14:34:38.792Z,991.1
2023-03-07T14:36:38.819Z,991.1
2023-03-07T14:47:38.657Z,991.1
2023-03-07T14:48:38.800Z,991.1
2023-03-07T14:49:38.761Z,991.2
2023-03-07T14:51:38.765Z,991.2
2023-03-07T15:24:38.986Z,991.2
2023-03-07T15:25:38.982Z,991.2
2023-03-07T15:27:38.785Z,991.2
2023-03-07T15:30:38.801Z,991.2
2023-03-07T15:31:38.823Z,991.2
2023-03-07T16:11:38.833Z,991.4
2023-03-07T16:14:38.792Z,991.4
2023-03-07T16:16:38.748Z,991.4
2023-03-07T16:17:38.777Z,991.4
2023-03-07T16:18:38.806Z,991.4
2023-03-07T17:13:38.644Z,992
2023-03-07T17:14:38.745Z,992.1
2023-03-07T17:19:38.617Z,992.1
2023-03-07T17:49:38.691Z,992.8
2023-03-07T18:51:38.620Z,993.3
2023-03-07T18:54:38.510Z,993.4
2023-03-07T19:07:38.491Z,993.5
2023-03-07T19:08:38.496Z,993.5
2023-03-07T19:14:38.511Z,993.4
2023-03-07T19:15:38.557Z,993.5
2023-03-07T19:24:39.244Z,993.5
2023-03-07T19:26:38.511Z,993.5
2023-03-07T19:29:38.541Z,993.5
2023-03-07T19:32:38.607Z,993.4
2023-03-07T19:35:38.538Z,993.3
2023-03-07T19:38:38.508Z,993.3
2023-03-07T19:39:38.578Z,993.4
2023-03-07T19:42:38.491Z,993.4
2023-03-07T19:43:38.495Z,993.4
2023-03-07T19:45:38.548Z,993.4
2023-03-07T19:48:40.679Z,993.5
2023-03-07T19:50:38.503Z,993.6
2023-03-07T19:51:38.487Z,993.6
2023-03-07T19:54:38.493Z,993.6
2023-03-07T19:55:38.501Z,993.6
2023-03-07T19:56:38.497Z,993.7
2023-03-07T19:58:38.487Z,993.7
2023-03-07T20:01:38.554Z,993.7
2023-03-07T20:03:38.489Z,993.8
2023-03-07T20:04:38.554Z,993.8
2023-03-07T20:06:38.490Z,993.7
2023-03-07T20:07:38.496Z,993.7
2023-03-07T20:09:38.508Z,993.7
2023-03-07T20:11:38.496Z,993.7
2023-03-07T20:12:38.486Z,993.7
2023-03-07T20:14:38.548Z,993.8
2023-03-07T20:15:38.530Z,993.7
2023-03-07T20:16:38.529Z,993.7
2023-03-07T20:17:38.501Z,993.8
2023-03-07T20:19:38.483Z,993.8
2023-03-07T20:21:38.484Z,993.7
2023-03-07T20:22:38.487Z,993.8
2023-03-07T20:25:38.490Z,993.8
2023-03-07T20:26:38.494Z,993.9
2023-03-07T20:28:38.508Z,993.9
2023-03-07T20:32:38.593Z,993.9
2023-03-07T20:33:38.508Z,993.9
2023-03-07T20:41:38.505Z,994
2023-03-07T20:42:38.489Z,994
2023-03-07T20:43:38.489Z,994
2023-03-07T20:44:38.494Z,994
2023-03-07T20:46:38.647Z,994
2023-03-07T20:48:38.481Z,994
2023-03-07T20:55:38.518Z,994.1
2023-03-07T20:59:38.483Z,994.1
2023-03-07T21:05:38.483Z,994.1
2023-03-07T21:07:38.498Z,994.1
2023-03-07T21:14:38.487Z,994.2
2023-03-07T21:19:38.572Z,994.2
2023-03-07T21:28:38.478Z,994.3
2023-03-07T21:30:38.478Z,994.3
2023-03-07T21:35:38.486Z,994.3
2023-03-07T21:36:38.472Z,994.3
2023-03-07T21:37:38.464Z,994.3
2023-03-07T21:38:38.554Z,994.3
2023-03-07T21:40:38.463Z,994.3
2023-03-07T21:42:38.476Z,994.3
2023-03-07T21:46:38.463Z,994.3
2023-03-07T21:47:38.466Z,994.4
2023-03-07T21:49:38.480Z,994.4
2023-03-07T21:50:38.523Z,994.4
2023-03-07T21:52:38.466Z,994.4
2023-03-07T21:54:38.456Z,994.3
2023-03-07T21:55:38.464Z,994.3
2023-03-07T21:58:38.465Z,994.4
2023-03-07T21:59:38.461Z,994.4
2023-03-07T22:00:38.459Z,994.4
2023-03-07T22:02:38.480Z,994.5
2023-03-07T22:03:38.542Z,994.5
2023-03-07T22:06:38.483Z,994.6
2023-03-07T22:07:38.456Z,994.5
2023-03-07T22:08:38.462Z,994.5
2023-03-07T22:14:38.473Z,994.5
2023-03-07T22:17:38.471Z,994.4
2023-03-07T22:18:38.460Z,994.5
2023-03-07T22:22:38.465Z,994.5
2023-03-07T22:24:38.493Z,994.6
2023-03-07T22:27:38.454Z,994.6
2023-03-07T22:28:38.639Z,994.6
2023-03-07T22:29:38.454Z,994.7
2023-03-07T22:31:38.540Z,994.6
2023-03-07T22:32:38.481Z,994.6
2023-03-07T22:34:38.453Z,994.6
2023-03-07T22:37:38.462Z,994.6
2023-03-07T22:39:38.452Z,994.6
2023-03-07T22:40:39.024Z,994.6
2023-03-07T22:42:38.468Z,994.6
2023-03-07T22:44:38.448Z,994.7
2023-03-07T22:47:38.461Z,994.7
2023-03-07T22:48:38.458Z,994.7
2023-03-07T22:52:38.448Z,994.7
2023-03-07T22:53:38.452Z,994.7
2023-03-07T22:56:38.458Z,994.7
2023-03-07T22:58:38.462Z,994.8
2023-03-07T23:01:38.461Z,994.8
2023-03-07T23:03:38.498Z,994.8
2023-03-07T23:04:38.513Z,994.8
2023-03-07T23:06:38.461Z,994.8
2023-03-07T23:12:38.540Z,994.7
2023-03-07T23:17:38.466Z,994.7
2023-03-07T23:22:38.494Z,994.7
2023-03-07T23:25:38.507Z,994.7
2023-03-07T23:30:38.481Z,994.7
2023-03-07T23:32:38.520Z,994.7
2023-03-07T23:33:38.437Z,994.7
2023-03-07T23:35:38.474Z,994.7
2023-03-07T23:38:38.442Z,994.7
2023-03-07T23:40:38.444Z,994.7
2023-03-07T23:41:38.432Z,994.7
2023-03-07T23:43:38.454Z,994.7
2023-03-07T23:46:38.442Z,994.7
2023-03-07T23:49:38.437Z,994.7
2023-03-07T23:50:38.429Z,994.7
2023-03-07T23:51:38.442Z,994.7
2023-03-07T23:53:38.439Z,994.7
2023-03-07T23:54:39.206Z,994.7
2023-03-07T23:56:38.432Z,994.7
2023-03-07T23:57:38.428Z,994.7
